Time;durP1;ratioP1;P1;durP2;ratioP2;P2;SDS_P1;SDS_P2;PMS_P1;PMS_P2;Temp;Humidity;BMP_temperature;BMP_pressure;BME280_temperature;BME280_humidity;BME280_pressure;Samples;Min_cycle;Max_cycle;Signal;HPM_P1;HPM_P2
2022/05/31 00:00:10;;;;;;;8.85;4.95;;;;;;;18.14;100.00;99333.14;1666237;86;21086;-73
2022/05/31 00:02:40;;;;;;;8.45;5.10;;;;;;;18.11;100.00;99330.33;1666248;86;21129;-75
2022/05/31 00:05:09;;;;;;;11.73;5.50;;;;;;;18.08;100.00;99325.88;1665739;86;21074;-72
2022/05/31 00:07:38;;;;;;;9.75;5.12;;;;;;;18.04;100.00;99328.25;1666001;86;21071;-73
2022/05/31 00:10:05;;;;;;;11.55;6.15;;;;;;;18.00;100.00;99318.86;1666020;86;20998;-71
2022/05/31 00:12:33;;;;;;;11.88;6.30;;;;;;;17.95;100.00;99317.37;1665604;86;21034;-73
2022/05/31 00:15:01;;;;;;;13.68;6.80;;;;;;;17.90;100.00;99309.89;1665903;86;21081;-73
2022/05/31 00:17:27;;;;;;;12.98;6.80;;;;;;;17.84;100.00;99298.48;1665898;86;21035;-72
2022/05/31 00:19:57;;;;;;;15.08;7.05;;;;;;;17.78;100.00;99294.80;1677790;85;21033;-71
2022/05/31 00:22:25;;;;;;;12.25;6.92;;;;;;;17.73;100.00;99275.54;1690198;84;21056;-73
2022/05/31 00:24:52;;;;;;;11.35;6.37;;;;;;;17.70;100.00;99260.97;1690273;85;21100;-73
2022/05/31 00:27:21;;;;;;;12.60;7.50;;;;;;;17.69;100.00;99253.00;1690446;85;21511;-72
2022/05/31 00:29:48;;;;;;;14.60;7.17;;;;;;;17.65;100.00;99241.19;1690478;84;21083;-73
2022/05/31 00:32:21;;;;;;;13.75;7.40;;;;;;;17.63;100.00;99238.37;1690383;85;21037;-73
2022/05/31 00:34:50;;;;;;;17.80;7.00;;;;;;;17.60;100.00;99229.28;1725430;83;21049;-73
2022/05/31 00:37:16;;;;;;;10.38;6.72;;;;;;;17.57;100.00;99227.87;1725353;83;20993;-73
2022/05/31 00:39:44;;;;;;;16.37;7.10;;;;;;;17.55;100.00;99225.08;1724943;83;21456;-73
2022/05/31 00:42:15;;;;;;;11.75;6.60;;;;;;;17.53;100.00;99217.12;1725124;83;21048;-71
2022/05/31 00:44:42;;;;;;;13.72;6.92;;;;;;;17.51;100.00;99214.31;1725288;83;20993;-73
2022/05/31 00:47:15;;;;;;;13.65;7.03;;;;;;;17.48;100.00;99207.97;1719437;83;21025;-73
2022/05/31 00:50:07;;;;;;;11.50;6.90;;;;;;;17.44;100.00;99213.05;1712267;84;21002;-72
2022/05/31 00:52:42;;;;;;;11.80;6.97;;;;;;;17.41;100.00;99211.62;1713910;83;21002;-73
2022/05/31 00:55:20;;;;;;;15.18;7.42;;;;;;;17.39;100.00;99206.13;1714264;83;21066;-74
2022/05/31 00:58:08;;;;;;;17.62;8.53;;;;;;;17.37;100.00;99201.40;1693119;84;21010;-72
2022/05/31 01:00:36;;;;;;;33.28;19.50;;;;;;;17.36;100.00;99197.84;1714440;83;21017;-72
2022/05/31 01:03:04;;;;;;;40.83;26.30;;;;;;;17.37;100.00;99191.83;1714402;84;20978;-72
2022/05/31 01:05:31;;;;;;;42.13;26.85;;;;;;;17.39;100.00;99196.55;1714388;83;21114;-72
2022/05/31 01:07:58;;;;;;;45.83;29.57;;;;;;;17.43;100.00;99196.38;1714184;84;21041;-71
2022/05/31 01:10:26;;;;;;;71.65;39.83;;;;;;;17.46;100.00;99195.36;1714408;84;21058;-73
2022/05/31 01:13:11;;;;;;;69.82;37.90;;;;;;;17.47;100.00;99193.45;1710724;84;21046;-72
2022/05/31 01:16:09;;;;;;;40.25;23.65;;;;;;;17.49;100.00;99203.61;1714331;84;21002;-72
2022/05/31 01:18:55;;;;;;;57.95;31.60;;;;;;;17.53;100.00;99207.55;1714626;83;21057;-72
2022/05/31 01:21:36;;;;;;;58.92;31.37;;;;;;;17.58;100.00;99211.78;1665074;86;21003;-72
2022/05/31 01:24:17;;;;;;;52.35;27.25;;;;;;;17.59;100.00;99221.63;1661707;86;21042;-72
2022/05/31 01:26:50;;;;;;;41.05;23.47;;;;;;;17.59;100.00;99226.27;1642552;86;21631;-73
2022/05/31 01:29:27;;;;;;;35.98;19.62;;;;;;;17.58;100.00;99229.55;1665294;86;21042;-73
2022/05/31 01:32:00;;;;;;;29.85;15.78;;;;;;;17.58;100.00;99233.64;1665114;86;21042;-72
2022/05/31 01:34:53;;;;;;;31.93;18.70;;;;;;;17.56;100.00;99230.83;1665136;86;21014;-71
2022/05/31 01:37:25;;;;;;;32.73;17.70;;;;;;;17.55;100.00;99231.37;1642770;86;21037;-72
2022/05/31 01:39:56;;;;;;;33.83;17.00;;;;;;;17.52;100.00;99220.09;1574845;89;21110;-72
2022/05/31 01:42:42;;;;;;;134.27;68.72;;;;;;;17.49;100.00;99205.52;1569708;91;21106;-73
2022/05/31 01:45:17;;;;;;;100.78;51.25;;;;;;;17.45;100.00;99199.15;1569776;91;21074;-74
2022/05/31 01:47:43;;;;;;;116.73;61.95;;;;;;;17.42;100.00;99181.03;1549610;93;21094;-74
2022/05/31 01:50:16;;;;;;;133.70;70.92;;;;;;;17.38;100.00;99158.81;1550997;93;21098;-73
2022/05/31 01:52:43;;;;;;;201.58;99.60;;;;;;;17.36;100.00;99151.39;1551373;93;21593;-73
2022/05/31 01:55:10;;;;;;;193.05;97.02;;;;;;;17.34;100.00;99148.07;1551100;93;21111;-72
2022/05/31 01:57:37;;;;;;;235.68;118.50;;;;;;;17.32;100.00;99136.55;1536216;93;21058;-71
2022/05/31 02:00:10;;;;;;;260.60;127.62;;;;;;;17.31;100.00;99128.59;1521807;94;21202;-73
2022/05/31 02:02:49;;;;;;;108.83;55.80;;;;;;;17.30;100.00;99118.20;1521870;94;21151;-73
2022/05/31 02:05:15;;;;;;;103.10;48.90;;;;;;;17.32;100.00;99111.14;1521923;93;21090;-72
2022/05/31 02:07:57;;;;;;;130.20;58.70;;;;;;;17.36;100.00;99110.95;1522025;94;21139;-73
2022/05/31 02:10:24;;;;;;;93.62;46.48;;;;;;;17.40;100.00;99108.03;1515532;95;21132;-71
2022/05/31 02:12:53;;;;;;;68.65;35.92;;;;;;;17.46;100.00;99110.64;1516484;95;21104;-73
2022/05/31 02:15:39;;;;;;;61.02;32.13;;;;;;;17.50;100.00;99114.27;1516343;95;21148;-73
2022/05/31 02:18:12;;;;;;;77.92;40.70;;;;;;;17.52;100.00;99123.88;1469986;97;21153;-73
2022/05/31 02:20:57;;;;;;;111.25;51.60;;;;;;;17.55;100.00;99132.98;1449362;99;21215;-74
2022/05/31 02:23:24;;;;;;;80.05;40.95;;;;;;;17.58;100.00;99142.59;1449709;98;21096;-74
2022/05/31 02:25:51;;;;;;;57.88;31.23;;;;;;;17.61;100.00;99148.95;1449537;99;21169;-75
2022/05/31 02:28:18;;;;;;;57.95;32.03;;;;;;;17.64;100.00;99153.41;1449706;98;21063;-73
2022/05/31 02:30:45;;;;;;;79.95;45.75;;;;;;;17.68;100.00;99155.67;1449405;99;21147;-74
2022/05/31 02:33:12;;;;;;;81.47;45.45;;;;;;;17.74;100.00;99162.90;1449785;99;21167;-75
2022/05/31 02:35:39;;;;;;;112.17;56.08;;;;;;;17.80;100.00;99166.88;1451982;97;21119;-75
2022/05/31 02:38:06;;;;;;;100.00;52.78;;;;;;;17.87;100.00;99177.73;1511720;95;21085;-75
2022/05/31 02:40:33;;;;;;;166.85;87.62;;;;;;;17.93;100.00;99186.88;1502003;96;21103;-75
2022/05/31 02:43:00;;;;;;;306.32;156.65;;;;;;;18.01;100.00;99191.98;1501983;96;21080;-75
2022/05/31 02:45:27;;;;;;;321.65;165.62;;;;;;;18.07;100.00;99198.39;1502170;96;21151;-75
2022/05/31 02:47:55;;;;;;;159.95;94.20;;;;;;;18.12;100.00;99203.42;1500147;95;21184;-74
2022/05/31 02:50:22;;;;;;;111.65;63.98;;;;;;;18.15;100.00;99200.22;1527399;89;21151;-74
2022/05/31 02:52:49;;;;;;;75.97;46.23;;;;;;;18.14;100.00;99201.82;1599393;90;21087;-75
2022/05/31 02:55:16;;;;;;;243.48;122.45;;;;;;;18.09;100.00;99191.59;1623229;86;21037;-74
2022/05/31 02:58:03;;;;;;;252.50;129.95;;;;;;;18.05;100.00;99189.05;1660702;86;21574;-74
2022/05/31 03:00:34;;;;;;;172.57;93.52;;;;;;;18.00;100.00;99182.92;1676937;85;21038;-74
2022/05/31 03:03:20;;;;;;;129.35;65.35;;;;;;;17.97;100.00;99175.22;1681539;85;21086;-74
2022/05/31 03:06:06;;;;;;;143.62;72.40;;;;;;;17.92;100.00;99168.27;1681562;85;21055;-74
2022/05/31 03:08:37;;;;;;;128.42;64.82;;;;;;;17.87;100.00;99155.86;1684110;85;21062;-74
2022/05/31 03:11:09;;;;;;;214.50;105.40;;;;;;;17.84;100.00;99142.08;1683990;85;21075;-75
2022/05/31 03:13:37;;;;;;;264.60;119.65;;;;;;;17.81;100.00;99128.91;1636811;88;21084;-74
2022/05/31 03:16:05;;;;;;;98.67;51.63;;;;;;;17.81;100.00;99121.22;1637168;88;21075;-74
2022/05/31 03:18:35;;;;;;;75.52;40.92;;;;;;;17.80;100.00;99121.77;1636902;88;21059;-74
2022/05/31 03:21:10;;;;;;;110.88;60.33;;;;;;;17.79;100.00;99114.63;1609203;89;21081;-75
2022/05/31 03:23:47;;;;;;;77.08;43.78;;;;;;;17.80;100.00;99115.47;1609626;89;21116;-75
2022/05/31 03:26:14;;;;;;;108.05;53.75;;;;;;;17.80;100.00;99114.93;1643782;87;21022;-74
2022/05/31 03:28:41;;;;;;;116.03;60.20;;;;;;;17.84;100.00;99101.06;1643424;87;21129;-74
2022/05/31 03:31:09;;;;;;;177.55;94.55;;;;;;;17.88;100.00;99105.54;1643663;87;21105;-75
2022/05/31 03:33:37;;;;;;;314.40;162.40;;;;;;;17.92;100.00;99098.53;1644426;87;21011;-74
2022/05/31 03:36:05;;;;;;;234.15;122.42;;;;;;;17.98;100.00;99103.02;1643995;87;21187;-75
2022/05/31 03:38:34;;;;;;;196.98;106.47;;;;;;;18.07;100.00;99101.28;1642815;87;21046;-74
2022/05/31 03:41:01;;;;;;;261.50;134.07;;;;;;;18.14;100.00;99112.36;1643705;87;21038;-74
2022/05/31 03:43:35;;;;;;;175.30;95.83;;;;;;;18.21;100.00;99111.69;1643038;87;21034;-74
2022/05/31 03:46:20;;;;;;;133.05;70.92;;;;;;;18.29;100.00;99120.06;1643699;87;21518;-75
2022/05/31 03:48:50;;;;;;;131.07;67.30;;;;;;;18.37;100.00;99125.67;1559697;89;21118;-75
2022/05/31 03:51:17;;;;;;;69.30;34.03;;;;;;;18.44;100.00;99138.67;1559937;92;21074;-73
2022/05/31 03:53:45;;;;;;;98.82;46.18;;;;;;;18.51;100.00;99139.90;1559626;91;21130;-74
2022/05/31 03:56:12;;;;;;;88.22;43.95;;;;;;;18.59;100.00;99155.39;1559867;92;21126;-75
2022/05/31 03:58:40;;;;;;;87.00;41.18;;;;;;;18.69;100.00;99156.65;1559752;92;21079;-74
2022/05/31 04:01:11;;;;;;;90.42;44.60;;;;;;;18.77;100.00;99163.11;1483811;97;21132;-75
2022/05/31 04:03:38;;;;;;;88.55;39.83;;;;;;;18.85;100.00;99168.74;1483757;97;21068;-75
2022/05/31 04:06:05;;;;;;;53.42;27.80;;;;;;;18.93;100.00;99167.80;1506804;95;21260;-75
2022/05/31 04:08:33;;;;;;;65.92;31.77;;;;;;;19.03;100.00;99174.53;1511770;94;21173;-75
2022/05/31 04:11:00;;;;;;;98.07;43.90;;;;;;;19.14;100.00;99184.57;1511738;95;21105;-76
2022/05/31 04:13:28;;;;;;;114.50;50.70;;;;;;;19.23;100.00;99190.47;1511360;95;21077;-75
2022/05/31 04:16:14;;;;;;;112.72;50.00;;;;;;;19.33;100.00;99194.21;1511557;95;21113;-76
2022/05/31 04:18:43;;;;;;;60.48;29.30;;;;;;;19.48;100.00;99205.98;1511755;94;21084;-75
2022/05/31 04:21:12;;;;;;;71.42;30.20;;;;;;;19.62;100.00;99215.22;1535530;93;21646;-74
2022/05/31 04:23:58;;;;;;;38.58;18.62;;;;;;;19.79;100.00;99224.84;1535808;93;21053;-75
2022/05/31 04:26:45;;;;;;;43.20;20.77;;;;;;;19.93;100.00;99244.53;1535656;93;21105;-73
2022/05/31 04:29:30;;;;;;;42.85;21.12;;;;;;;20.05;100.00;99275.44;1481424;96;21123;-75
2022/05/31 04:32:13;;;;;;;40.75;21.17;;;;;;;20.14;100.00;99290.94;1481413;97;21203;-75
2022/05/31 04:34:42;;;;;;;31.27;15.32;;;;;;;20.25;100.00;99294.11;1481650;97;21136;-76
2022/05/31 04:37:10;;;;;;;28.07;13.53;;;;;;;20.40;100.00;99301.19;1481496;97;21135;-76
2022/05/31 04:39:55;;;;;;;29.23;13.22;;;;;;;20.62;100.00;99311.39;1481592;96;21621;-76
2022/05/31 04:42:37;;;;;;;20.27;9.88;;;;;;;20.83;100.00;99322.09;1457473;99;21694;-75
2022/05/31 04:45:08;;;;;;;19.48;10.25;;;;;;;21.09;100.00;99334.74;1458434;95;21140;-76
2022/05/31 04:47:37;;;;;;;56.48;25.95;;;;;;;21.31;100.00;99339.67;1462335;98;21121;-74
2022/05/31 04:50:05;;;;;;;29.42;15.45;;;;;;;21.56;100.00;99368.55;1442305;97;21599;-75
2022/05/31 04:52:34;;;;;;;209.98;118.72;;;;;;;21.79;100.00;99382.53;1452239;99;21158;-76
2022/05/31 04:55:01;;;;;;;317.87;172.22;;;;;;;21.97;100.00;99421.22;1452488;99;21138;-74
2022/05/31 04:57:30;;;;;;;99.95;54.40;;;;;;;22.07;100.00;99454.35;1453135;98;21124;-77
2022/05/31 04:59:57;;;;;;;57.13;27.50;;;;;;;22.04;100.00;99483.77;1463870;97;21145;-74
2022/05/31 05:02:24;;;;;;;30.40;15.88;;;;;;;22.10;100.00;99479.17;1463976;97;21073;-75
2022/05/31 05:04:53;;;;;;;56.08;29.85;;;;;;;22.12;100.00;99508.64;1463503;98;21131;-76
2022/05/31 05:07:39;;;;;;;353.18;293.05;;;;;;;22.07;100.00;99520.97;1498867;95;21198;-74
2022/05/31 05:10:09;;;;;;;34.27;17.98;;;;;;;22.22;100.00;99510.64;1497976;94;21561;-76
2022/05/31 05:12:38;;;;;;;22.98;10.63;;;;;;;22.40;100.00;99523.23;1486579;97;21116;-74
2022/05/31 05:15:10;;;;;;;40.23;18.10;;;;;;;22.53;100.00;99540.16;1486649;96;21590;-74
2022/05/31 05:17:38;;;;;;;31.62;16.70;;;;;;;22.72;100.00;99538.41;1490552;93;21068;-72
2022/05/31 05:20:08;;;;;;;20.40;9.53;;;;;;;22.91;100.00;99543.78;1528125;93;21123;-71
2022/05/31 05:22:36;;;;;;;23.45;15.72;;;;;;;23.08;100.00;99569.83;1539568;93;21111;-72
2022/05/31 05:25:09;;;;;;;41.77;19.12;;;;;;;23.13;100.00;99600.20;1548509;88;21123;-74
2022/05/31 05:27:48;;;;;;;27.65;13.58;;;;;;;23.17;100.00;99612.09;1625550;88;21504;-73
2022/05/31 05:33:19;;;;;;;22.45;11.22;;;;;;;23.39;100.00;99622.45;1596969;89;21074;-74
2022/05/31 05:35:50;;;;;;;23.35;9.38;;;;;;;23.52;100.00;99635.50;1591171;90;21085;-70
2022/05/31 05:38:17;;;;;;;32.08;19.20;;;;;;;23.53;100.00;99646.80;1586698;90;21038;-68
2022/05/31 05:40:57;;;;;;;26.17;13.25;;;;;;;23.49;100.00;99645.95;1561170;90;21024;-72
2022/05/31 05:43:25;;;;;;;21.25;10.88;;;;;;;23.60;100.00;99645.48;1561127;92;21080;-73
2022/05/31 05:45:54;;;;;;;19.27;8.20;;;;;;;23.79;100.00;99645.84;1559831;92;21700;-73
2022/05/31 05:48:21;;;;;;;17.90;7.97;;;;;;;24.00;100.00;99659.80;1561756;90;21679;-76
2022/05/31 05:50:48;;;;;;;22.70;10.82;;;;;;;24.05;100.00;99660.64;1562417;90;21155;-75
2022/05/31 05:53:25;;;;;;;26.35;11.73;;;;;;;24.17;100.00;99660.95;1561050;92;21096;-76
2022/05/31 05:55:52;;;;;;;17.48;8.05;;;;;;;24.34;100.00;99659.37;1562317;92;21075;-74
2022/05/31 05:58:19;;;;;;;17.50;8.48;;;;;;;24.54;100.00;99666.37;1562391;92;21083;-74
2022/05/31 06:01:26;;;;;;;17.02;8.23;;;;;;;24.68;100.00;99672.75;1562277;92;21114;-75
2022/05/31 06:04:12;;;;;;;23.38;8.30;;;;;;;24.85;100.00;99676.66;1521412;94;21146;-72
2022/05/31 06:06:42;;;;;;;18.42;7.37;;;;;;;25.13;100.00;99683.59;1521056;93;21088;-74
2022/05/31 06:09:14;;;;;;;21.75;9.23;;;;;;;25.47;100.00;99685.25;1522493;93;21654;-71
2022/05/31 06:11:48;;;;;;;20.20;10.08;;;;;;;25.78;100.00;99699.03;1521769;94;21144;-71
2022/05/31 06:14:22;;;;;;;17.82;7.83;;;;;;;25.93;100.00;99705.95;1477305;96;21111;-73
2022/05/31 06:16:53;;;;;;;19.62;9.23;;;;;;;25.96;100.00;99710.13;1462508;97;21123;-74
2022/05/31 06:19:35;;;;;;;19.10;9.80;;;;;;;25.98;100.00;99714.00;1450836;99;21117;-73
2022/05/31 06:22:02;;;;;;;22.73;12.18;;;;;;;26.07;100.00;99713.13;1435941;100;21080;-74
2022/05/31 06:24:32;;;;;;;21.10;13.95;;;;;;;26.29;100.00;99722.48;1374009;104;21666;-71
2022/05/31 06:27:01;;;;;;;16.42;9.13;;;;;;;26.61;100.00;99729.55;1373613;104;21694;-73
2022/05/31 06:29:28;;;;;;;15.70;7.50;;;;;;;27.01;100.00;99733.20;1373889;104;21180;-74
2022/05/31 06:31:55;;;;;;;18.10;8.28;;;;;;;27.40;100.00;99757.94;1373531;104;21169;-75
2022/05/31 06:34:24;;;;;;;14.98;7.70;;;;;;;27.56;100.00;99769.17;1376596;103;21154;-76
2022/05/31 06:37:09;;;;;;;16.70;8.73;;;;;;;27.78;100.00;99772.03;1392867;103;21149;-74
2022/05/31 06:39:38;;;;;;;15.18;7.50;;;;;;;28.02;100.00;99779.87;1341857;106;21242;-78
2022/05/31 06:42:10;;;;;;;15.63;7.15;;;;;;;28.33;100.00;99775.39;1336958;107;21236;-73
2022/05/31 06:44:42;;;;;;;16.23;6.90;;;;;;;28.68;100.00;99776.08;1298650;111;21238;-77
2022/05/31 06:47:27;;;;;;;15.00;6.70;;;;;;;28.84;100.00;99789.80;1264061;114;21380;-76
2022/05/31 06:50:12;;;;;;;14.73;6.90;;;;;;;28.78;100.00;99791.25;1263899;114;21255;-77
2022/05/31 06:58:41;;;;;;;19.85;10.25;;;;;;;28.96;100.00;99783.23;1262985;114;21768;-74
2022/05/31 07:01:10;;;;;;;18.45;7.50;;;;;;;29.30;100.00;99786.38;1258350;114;21179;-75
2022/05/31 07:03:38;;;;;;;16.12;7.47;;;;;;;29.60;100.00;99788.41;1283863;112;21230;-75
2022/05/31 07:06:05;;;;;;;15.35;7.03;;;;;;;29.89;100.00;99791.83;1264765;113;21233;-74
2022/05/31 07:08:32;;;;;;;16.35;7.42;;;;;;;30.18;100.00;99786.55;1294463;110;21745;-74
2022/05/31 07:11:01;;;;;;;19.95;8.25;;;;;;;30.44;100.00;99793.88;1306752;110;21125;-76
2022/05/31 07:13:36;;;;;;;19.30;8.93;;;;;;;30.68;100.00;99796.20;1345872;104;21213;-75
2022/05/31 07:16:23;;;;;;;18.67;7.47;;;;;;;30.89;100.00;99793.21;1387977;102;21163;-75
2022/05/31 07:18:50;;;;;;;23.00;8.30;;;;;;;31.16;100.00;99794.31;1399888;102;21606;-75
2022/05/31 07:21:17;;;;;;;17.02;7.42;;;;;;;31.21;100.00;99796.98;1436817;97;21256;-74
2022/05/31 07:23:44;;;;;;;13.65;7.72;;;;;;;31.21;100.00;99790.01;1484290;96;21159;-74
2022/05/31 07:26:12;;;;;;;16.35;7.90;;;;;;;31.45;100.00;99784.69;1484282;96;21617;-75
2022/05/31 07:28:40;;;;;;;16.95;6.70;;;;;;;31.73;100.00;99786.80;1484775;96;21064;-73
2022/05/31 07:31:09;;;;;;;22.52;6.60;;;;;;;31.81;100.00;99797.80;1531579;93;21143;-75
2022/05/31 07:33:38;;;;;;;15.78;6.72;;;;;;;31.51;100.00;99799.64;1559987;91;21045;-73
2022/05/31 07:36:07;;;;;;;14.45;6.60;;;;;;;31.13;100.00;99801.37;1559349;91;21053;-77
2022/05/31 07:38:38;;;;;;;16.60;6.67;;;;;;;30.90;100.00;99795.42;1548387;91;21102;-77
2022/05/31 07:41:05;;;;;;;19.40;7.58;;;;;;;30.74;100.00;99794.39;1553504;89;21042;-77
2022/05/31 07:43:32;;;;;;;19.37;8.28;;;;;;;30.43;100.00;99806.73;1579242;90;21096;-74
2022/05/31 07:46:05;;;;;;;17.00;6.95;;;;;;;30.10;100.00;99807.62;1609331;89;21093;-77
2022/05/31 07:48:35;;;;;;;14.70;6.60;;;;;;;30.05;100.00;99797.13;1603677;90;21196;-76
2022/05/31 07:51:06;;;;;;;15.32;6.83;;;;;;;30.11;100.00;99797.28;1600465;90;21059;-77
2022/05/31 07:53:35;;;;;;;20.50;7.20;;;;;;;30.18;100.00;99789.34;1533581;93;21139;-84
2022/05/31 07:56:09;;;;;;;17.17;7.20;;;;;;;30.27;100.00;99792.23;1508365;93;21115;-77
2022/05/31 07:58:55;;;;;;;18.98;8.30;;;;;;;30.34;100.00;99783.47;1481651;97;21114;-79
2022/05/31 08:01:25;;;;;;;22.42;8.55;;;;;;;30.66;100.00;99788.95;1467701;96;21157;-76
2022/05/31 08:03:54;;;;;;;22.58;9.50;;;;;;;30.76;100.00;99794.89;1480959;94;21551;-84
2022/05/31 08:06:24;;;;;;;20.85;8.73;;;;;;;30.54;100.00;99796.20;1527086;94;21050;-81
2022/05/31 08:08:51;;;;;;;20.68;10.08;;;;;;;30.50;100.00;99779.25;1527289;94;21062;-77
2022/05/31 08:11:29;;;;;;;19.85;10.50;;;;;;;30.82;100.00;99782.47;1527412;94;21077;-82
2022/05/31 08:14:05;;;;;;;20.97;10.20;;;;;;;30.96;100.00;99788.05;1512922;94;21104;-81
2022/05/31 08:16:33;;;;;;;23.22;11.00;;;;;;;30.91;100.00;99780.34;1530097;94;21056;-77
2022/05/31 08:19:01;;;;;;;28.75;13.25;;;;;;;31.16;100.00;99782.56;1529378;94;21153;-78
2022/05/31 08:21:30;;;;;;;56.15;36.70;;;;;;;31.33;100.00;99781.08;1563668;89;20998;-78
2022/05/31 08:24:06;;;;;;;34.85;17.20;;;;;;;31.56;100.00;99781.94;1575046;91;21148;-78
2022/05/31 08:26:34;;;;;;;58.23;32.13;;;;;;;31.63;100.00;99779.52;1634776;88;21591;-76
2022/05/31 08:29:02;;;;;;;38.75;21.73;;;;;;;31.84;100.00;99774.23;1634844;88;21102;-74
2022/05/31 08:31:35;;;;;;;75.35;41.20;;;;;;;31.94;100.00;99781.50;1657891;86;21067;-78
2022/05/31 08:34:03;;;;;;;30.23;16.05;;;;;;;31.89;100.00;99775.50;1717494;82;21932;-80
2022/05/31 08:36:31;;;;;;;29.85;15.38;;;;;;;32.02;100.00;99776.55;1738380;83;21044;-78
2022/05/31 08:38:58;;;;;;;43.40;18.85;;;;;;;32.02;100.00;99767.34;1738846;83;21071;-85
2022/05/31 08:41:32;;;;;;;38.30;20.32;;;;;;;32.06;100.00;99764.17;1738798;83;21047;-81
2022/05/31 08:44:31;;;;;;;26.10;13.70;;;;;;;31.98;100.00;99767.97;1738689;83;21076;-80
2022/05/31 08:47:09;;;;;;;112.62;57.80;;;;;;;32.06;100.00;99777.57;1732610;82;21034;-80
2022/05/31 08:53:13;;;;;;;296.93;125.65;;;;;;;31.54;100.00;99773.88;1725315;83;21053;-75
2022/05/31 08:58:48;;;;;;;140.10;58.60;;;;;;;31.48;100.00;99764.50;1698746;84;21098;-71
2022/05/31 09:01:18;;;;;;;53.70;26.68;;;;;;;31.46;100.00;99756.44;1697233;84;21608;-74
2022/05/31 09:04:14;;;;;;;69.92;33.20;;;;;;;31.68;100.00;99758.98;1697123;84;21065;-74
2022/05/31 09:06:58;;;;;;;66.40;37.00;;;;;;;31.73;100.00;99750.47;1667793;86;21507;-73
2022/05/31 09:09:38;;;;;;;67.50;38.10;;;;;;;31.96;100.00;99749.85;1667736;86;21145;-74
2022/05/31 09:12:32;;;;;;;54.77;30.97;;;;;;;32.35;100.00;99753.83;1668441;86;21058;-74
2022/05/31 09:15:17;;;;;;;101.97;52.60;;;;;;;32.58;100.00;99752.33;1667723;86;21097;-74
2022/05/31 09:18:03;;;;;;;50.70;29.75;;;;;;;32.77;100.00;99752.89;1669471;86;21030;-72
2022/05/31 09:20:47;;;;;;;23.92;12.65;;;;;;;33.08;100.00;99753.35;1672673;84;21047;-74
2022/05/31 09:23:20;;;;;;;32.17;14.23;;;;;;;33.32;100.00;99749.25;1692271;83;20983;-72
2022/05/31 09:25:58;;;;;;;111.85;49.00;;;;;;;33.56;100.00;99750.13;1677581;85;21032;-76
2022/05/31 09:28:42;;;;;;;60.90;27.98;;;;;;;33.93;100.00;99756.98;1671005;85;21040;-73
2022/05/31 09:31:21;;;;;;;27.95;11.63;;;;;;;34.08;100.00;99750.58;1677346;85;21024;-75
2022/05/31 09:34:02;;;;;;;25.00;12.82;;;;;;;33.85;100.00;99759.23;1665227;85;21064;-74
2022/05/31 09:36:37;;;;;;;20.68;11.38;;;;;;;33.55;100.00;99758.28;1607318;89;21198;-75
2022/05/31 09:39:24;;;;;;;28.75;13.35;;;;;;;33.11;100.00;99756.87;1520519;93;21119;-73
2022/05/31 09:42:08;;;;;;;28.50;13.00;;;;;;;32.80;100.00;99752.25;1530786;93;21075;-71
2022/05/31 09:44:38;;;;;;;25.77;10.50;;;;;;;32.76;100.00;99756.86;1533735;93;21619;-73
2022/05/31 09:47:14;;;;;;;19.17;8.50;;;;;;;33.06;100.00;99757.87;1523018;93;21108;-73
2022/05/31 09:49:50;;;;;;;19.82;9.60;;;;;;;33.54;100.00;99749.06;1514018;93;21154;-77
2022/05/31 09:52:37;;;;;;;15.60;7.87;;;;;;;34.11;100.00;99750.73;1510625;95;21608;-78
2022/05/31 09:58:36;;;;;;;15.53;7.62;;;;;;;34.58;100.00;99758.27;1510030;95;21059;-75
2022/05/31 10:01:27;;;;;;;18.87;7.45;;;;;;;34.72;100.00;99759.46;1510507;95;21667;-75
2022/05/31 10:04:14;;;;;;;14.10;6.78;;;;;;;35.01;100.00;99750.18;1532620;94;21098;-73
2022/05/31 10:07:01;;;;;;;15.13;6.40;;;;;;;35.38;100.00;99755.17;1534400;94;21067;-75
2022/05/31 10:09:35;;;;;;;17.60;6.78;;;;;;;35.52;94.83;99759.34;1515967;95;21126;-78
2022/05/31 10:12:26;;;;;;;38.10;18.10;;;;;;;35.53;94.88;99758.16;1516026;95;21106;-74
2022/05/31 10:14:54;;;;;;;40.43;16.90;;;;;;;35.67;93.67;99757.05;1516505;94;21082;-76
2022/05/31 10:17:38;;;;;;;180.82;134.85;;;;;;;35.45;94.06;99755.43;1499328;95;21932;-74
2022/05/31 10:20:15;;;;;;;33.35;15.78;;;;;;;35.17;97.97;99758.81;1520119;94;21368;-79
2022/05/31 10:22:59;;;;;;;33.18;11.22;;;;;;;35.17;100.00;99753.19;1537148;93;21104;-76
2022/05/31 10:25:49;;;;;;;13.30;6.22;;;;;;;35.45;97.07;99756.83;1543376;93;21097;-79
2022/05/31 10:28:37;;;;;;;10.45;5.50;;;;;;;35.52;89.17;99749.50;1539562;93;21116;-76
2022/05/31 10:31:29;;;;;;;13.62;5.60;;;;;;;35.29;90.44;99752.44;1542154;93;21118;-77
2022/05/31 10:34:00;;;;;;;13.62;6.08;;;;;;;35.18;91.86;99750.04;1540934;92;21109;-76
2022/05/31 10:36:32;;;;;;;19.17;5.22;;;;;;;35.06;93.43;99755.59;1488220;96;21119;-80
2022/05/31 10:39:10;;;;;;;14.90;5.65;;;;;;;34.73;91.49;99754.10;1462287;98;21070;-78
2022/05/31 10:41:38;;;;;;;12.40;5.17;;;;;;;34.37;94.35;99744.19;1479656;94;21179;-78
2022/05/31 10:44:18;;;;;;;13.30;6.20;;;;;;;34.25;97.67;99744.93;1509876;94;21056;-74
2022/05/31 10:46:48;;;;;;;17.05;8.63;;;;;;;34.48;98.70;99742.66;1522192;94;21128;-75
2022/05/31 10:49:18;;;;;;;11.83;5.42;;;;;;;34.74;98.10;99748.15;1526136;93;21026;-76
2022/05/31 10:52:22;;;;;;;13.40;5.25;;;;;;;34.70;95.12;99735.13;1468558;97;21171;-74
2022/05/31 10:55:12;;;;;;;17.62;6.75;;;;;;;34.27;95.21;99742.61;1468364;98;21124;-75
2022/05/31 10:58:12;;;;;;;13.35;5.35;;;;;;;33.75;98.84;99742.20;1489836;96;21161;-74
2022/05/31 11:00:55;;;;;;;11.73;5.53;;;;;;;33.79;100.00;99735.34;1437840;98;21168;-77
2022/05/31 11:03:39;;;;;;;17.98;5.17;;;;;;;33.70;100.00;99730.32;1475183;95;21674;-78
2022/05/31 11:06:30;;;;;;;15.35;4.70;;;;;;;33.70;100.00;99739.58;1481883;96;21875;-76
2022/05/31 11:12:47;;;;;;;11.00;4.85;;;;;;;33.89;91.22;99732.74;1460959;98;21558;-80
2022/05/31 11:15:51;;;;;;;12.13;4.92;;;;;;;33.85;91.22;99732.00;1467601;98;21103;-74
2022/05/31 11:18:27;;;;;;;23.57;5.65;;;;;;;34.08;94.48;99733.75;1497873;94;21122;-73
2022/05/31 11:21:11;;;;;;;12.15;5.03;;;;;;;34.32;91.33;99726.17;1454996;96;21221;-73
2022/05/31 11:23:55;;;;;;;13.98;4.70;;;;;;;34.37;87.65;99725.39;1465526;98;21128;-74
2022/05/31 11:26:49;;;;;;;11.15;4.90;;;;;;;34.52;88.74;99714.73;1463381;98;21727;-71
2022/05/31 11:29:53;;;;;;;15.93;5.40;;;;;;;34.73;82.81;99713.39;1465745;98;21101;-72
2022/05/31 11:32:34;;;;;;;15.43;5.40;;;;;;;34.78;86.05;99709.79;1485107;96;21104;-71
2022/05/31 11:35:53;;;;;;;12.55;5.15;;;;;;;35.06;87.94;99709.80;1400286;101;21135;-71
2022/05/31 11:38:32;;;;;;;15.35;5.62;;;;;;;35.34;87.43;99712.88;1341399;104;21154;-70
2022/05/31 11:41:33;;;;;;;13.62;5.10;;;;;;;35.50;81.80;99704.05;1299032;109;21724;-71
2022/05/31 11:44:20;;;;;;;14.23;4.95;;;;;;;35.40;78.71;99696.05;1284790;111;21194;-73
2022/05/31 11:47:18;;;;;;;15.83;4.65;;;;;;;35.17;80.49;99689.37;1322657;107;21245;-73
2022/05/31 11:50:11;;;;;;;11.75;4.58;;;;;;;35.07;77.49;99691.80;1327587;107;21204;-72
2022/05/31 11:52:47;;;;;;;11.97;4.80;;;;;;;34.85;77.38;99699.98;1326523;108;21643;-71
2022/05/31 11:55:37;;;;;;;22.10;5.45;;;;;;;34.74;80.30;99702.38;1340588;107;21156;-73
2022/05/31 11:58:30;;;;;;;12.30;4.75;;;;;;;34.60;80.77;99689.98;1360948;105;21214;-72
2022/05/31 12:01:14;;;;;;;12.03;4.75;;;;;;;34.43;79.90;99694.55;1425929;97;21168;-70
2022/05/31 12:04:04;;;;;;;13.08;5.00;;;;;;;34.23;83.76;99683.55;1478625;97;21079;-75
2022/05/31 12:07:04;;;;;;;16.50;4.97;;;;;;;34.36;86.22;99678.02;1472942;97;21143;-73
2022/05/31 12:09:52;;;;;;;13.13;4.55;;;;;;;34.64;80.56;99674.11;1444626;99;21187;-74